Aérodrome :
LOGIN :

S'inscrire | Disclaimer

   EN    FR    IT 

 










Légende :    VFR   VFR Marginal   IFR   IFR Intensif   IFR Très Intensif
Visi : 
Plafond : 
>= 8 km
>= 3000ft
5 à 8 km
1000 à 3000 ft
1500m à 5 km
500 à 1000 ft
800 à 1500m
200 à 500 ft
< 800m
< 200 ft
Symboles :   Orages  Brouillard  Fortes neiges  Fortes précipitations  Vent > 20 kt
SIGMETs :   Divers  Orages  Givrage  Turbulence  Onde Orograph.  Cendres Volcan.







- Altitude de l'aérodrome : 461 ft
- Code IATA : WIE


ETOU - Wiesbaden Army

DERNIER METAR :
  • 210256Z AUTO 03003KT 9999 CLR M04/M09 A3018 RMK AO2 SLP232 T10391089 50005 $

METARs EXPIRÉS :
  • 210156Z AUTO 03003KT 9999 CLR M04/M09 A3018 RMK AO2 SLP232 T10371091 $
  • 210056Z AUTO 05005KT 9999 CLR M03/M09 A3017 RMK AO2 SLP228 T10331089 $

TAF AMD TAF ETOU
Valide du 20 à 09h jusqu'au 21 à 10h UTC


201114Z 2009/2110 VRB06KT 9999 SCT015 QNH2992INS
BECMG 2017/2018 VRB06KT 9999 FEW015 QNH3004INS TX01/2014Z TNM03/2009Z LAST NO AMDS AFT 2009 NEXT 2204
Pas de NOTAMs connus pour ce terrain.



MET'MAP, la Météo Aéronautique d'un coup d'oeil ! - Copyright ORBIFLY Décembre 2007 - Disclaimer

ORBIFLY MET'MAP TEAM :

Programmation & Développement : Alexandra Zaïnal
Conception & Développement : Baudouin d'Aumeries
Co-Programmation & Développement : Marc-Olivier Méhu
Soutien technique & logistique : Manuel Goepfert

Contact : metmap@orbifly.com




SOURCES & CREDITS :

   NOAA